createdAt,value
2022-09-16T00:00:34.429Z,0
2022-09-16T00:01:40.586Z,0
2022-09-16T00:02:46.759Z,0
2022-09-16T00:03:52.922Z,0
2022-09-16T00:04:59.100Z,0
2022-09-16T00:06:05.320Z,0
2022-09-16T00:07:11.427Z,0
2022-09-16T00:08:17.610Z,0
2022-09-16T00:09:23.760Z,0
2022-09-16T00:10:29.937Z,0
2022-09-16T00:11:36.167Z,0
2022-09-16T00:12:42.288Z,0
2022-09-16T00:13:47.464Z,0
2022-09-16T00:14:53.643Z,0
2022-09-16T00:15:59.850Z,0
2022-09-16T00:17:05.973Z,0
2022-09-16T00:18:12.153Z,0
2022-09-16T00:19:18.306Z,0
2022-09-16T00:20:24.484Z,0
2022-09-16T00:21:30.639Z,0
2022-09-16T00:22:36.815Z,0
2022-09-16T00:23:42.997Z,0
2022-09-16T00:24:49.169Z,0
2022-09-16T00:25:55.334Z,0
2022-09-16T00:27:01.491Z,0
2022-09-16T00:28:06.687Z,0
2022-09-16T00:29:12.841Z,0
2022-09-16T00:30:19.023Z,0
2022-09-16T00:31:25.181Z,0
2022-09-16T00:32:31.354Z,0
2022-09-16T00:33:37.526Z,0
2022-09-16T00:34:43.696Z,0
2022-09-16T00:35:49.874Z,0
2022-09-16T00:36:56.023Z,0
2022-09-16T00:38:02.194Z,0
2022-09-16T00:39:08.365Z,0
2022-09-16T00:40:14.545Z,0
2022-09-16T00:41:20.791Z,0
2022-09-16T00:42:25.894Z,0
2022-09-16T00:43:32.067Z,0
2022-09-16T00:44:38.238Z,0
2022-09-16T00:45:44.406Z,0
2022-09-16T00:46:50.571Z,0
2022-09-16T00:47:56.752Z,0
2022-09-16T00:49:02.911Z,0
2022-09-16T00:50:09.095Z,0
2022-09-16T00:51:15.269Z,0
2022-09-16T00:52:21.424Z,0
2022-09-16T00:53:27.598Z,0
2022-09-16T00:54:33.770Z,0
2022-09-16T00:55:39.939Z,0
2022-09-16T00:56:45.130Z,0
2022-09-16T00:57:51.290Z,0
2022-09-16T00:58:57.479Z,0
2022-09-16T01:00:03.636Z,0
2022-09-16T01:01:09.808Z,0
2022-09-16T01:02:15.985Z,0
2022-09-16T01:03:22.128Z,0
2022-09-16T01:04:28.294Z,0
2022-09-16T01:05:34.467Z,0
2022-09-16T01:06:40.650Z,0
2022-09-16T01:07:46.822Z,0
2022-09-16T01:08:52.986Z,0
2022-09-16T01:09:59.162Z,0
2022-09-16T01:11:04.351Z,0
2022-09-16T01:12:10.541Z,0
2022-09-16T01:13:16.693Z,0
2022-09-16T01:14:22.843Z,0
2022-09-16T01:15:29.042Z,0
2022-09-16T01:16:35.189Z,0
2022-09-16T01:17:41.359Z,0
2022-09-16T01:18:47.551Z,0
2022-09-16T01:19:53.689Z,0
2022-09-16T01:20:59.864Z,0
2022-09-16T01:22:06.038Z,0
2022-09-16T01:23:12.208Z,0
2022-09-16T01:24:18.380Z,0
2022-09-16T01:25:23.558Z,0
2022-09-16T01:26:29.725Z,0
2022-09-16T01:27:35.930Z,0
2022-09-16T01:28:42.057Z,0
2022-09-16T01:29:48.236Z,0
2022-09-16T01:30:54.405Z,0
2022-09-16T01:32:00.567Z,0
2022-09-16T01:33:06.747Z,0
2022-09-16T01:34:12.934Z,0
2022-09-16T01:35:19.081Z,0
2022-09-16T01:36:25.264Z,0
2022-09-16T01:37:31.423Z,0
2022-09-16T01:38:37.619Z,0
2022-09-16T01:39:42.771Z,0
2022-09-16T01:40:48.937Z,0
2022-09-16T01:41:55.127Z,0
2022-09-16T01:43:01.305Z,0
2022-09-16T01:44:07.464Z,0
2022-09-16T01:45:13.638Z,0
2022-09-16T01:46:19.798Z,0
2022-09-16T01:47:25.966Z,0
2022-09-16T01:48:32.131Z,0
2022-09-16T01:49:38.296Z,0
2022-09-16T01:50:44.473Z,0
2022-09-16T01:51:50.646Z,0
2022-09-16T01:52:56.812Z,0
2022-09-16T01:54:02.008Z,0
2022-09-16T01:55:08.173Z,0
2022-09-16T01:56:14.338Z,0
2022-09-16T01:57:20.497Z,0
2022-09-16T01:58:26.687Z,0
2022-09-16T01:59:32.851Z,0
2022-09-16T02:00:39.004Z,0
2022-09-16T02:01:45.176Z,0
2022-09-16T02:02:51.348Z,0
2022-09-16T02:03:57.529Z,0
2022-09-16T02:05:03.704Z,0
2022-09-16T02:06:14.370Z,0
2022-09-16T02:07:16.027Z,0
2022-09-16T02:08:21.232Z,0
2022-09-16T02:09:27.394Z,0
2022-09-16T02:10:33.553Z,0
2022-09-16T02:11:39.728Z,0
2022-09-16T02:12:45.901Z,0
2022-09-16T02:13:52.095Z,0
2022-09-16T02:14:58.236Z,0
2022-09-16T02:16:04.397Z,0
2022-09-16T02:17:10.578Z,0
2022-09-16T02:18:16.778Z,0
2022-09-16T02:19:22.908Z,0
2022-09-16T02:20:29.078Z,0
2022-09-16T02:21:35.260Z,0
2022-09-16T02:22:40.450Z,0
2022-09-16T02:23:46.601Z,0
2022-09-16T02:24:52.785Z,0
2022-09-16T02:25:58.949Z,0
2022-09-16T02:27:05.130Z,0
2022-09-16T02:28:11.281Z,0
2022-09-16T02:29:16.473Z,0
2022-09-16T02:30:22.658Z,0
2022-09-16T02:31:28.840Z,0
2022-09-16T02:32:34.982Z,0
2022-09-16T02:33:41.157Z,0
2022-09-16T02:34:47.318Z,0
2022-09-16T02:35:53.494Z,0
2022-09-16T02:36:59.663Z,0
2022-09-16T02:38:05.822Z,0
2022-09-16T02:39:12.037Z,0
2022-09-16T02:40:18.176Z,0
2022-09-16T02:41:24.344Z,0
2022-09-16T02:42:30.518Z,0
2022-09-16T02:43:35.732Z,0
2022-09-16T02:44:41.882Z,0
2022-09-16T02:45:48.051Z,0
2022-09-16T02:46:54.213Z,0
2022-09-16T02:48:00.378Z,0
2022-09-16T02:49:06.543Z,0
2022-09-16T02:50:12.722Z,0
2022-09-16T02:51:18.907Z,0
2022-09-16T02:52:25.058Z,0
2022-09-16T02:53:31.230Z,0
2022-09-16T02:54:37.383Z,0
2022-09-16T02:55:43.576Z,0
2022-09-16T02:56:49.734Z,0
2022-09-16T02:57:54.912Z,0
2022-09-16T02:59:01.084Z,0
2022-09-16T03:00:07.256Z,0
2022-09-16T03:01:13.439Z,0
2022-09-16T03:02:19.586Z,0
2022-09-16T03:03:25.757Z,0
2022-09-16T03:04:31.949Z,0
2022-09-16T03:05:38.092Z,0
2022-09-16T03:06:44.272Z,0
2022-09-16T03:07:50.449Z,0
2022-09-16T03:08:56.605Z,0
2022-09-16T03:10:02.801Z,0
2022-09-16T03:11:08.961Z,0
2022-09-16T03:12:14.134Z,0
2022-09-16T03:13:20.305Z,0
2022-09-16T03:14:26.458Z,0
2022-09-16T03:15:32.653Z,0
2022-09-16T03:16:38.821Z,0
2022-09-16T03:17:44.989Z,0
2022-09-16T03:18:51.156Z,0
2022-09-16T03:19:57.315Z,0
2022-09-16T03:21:03.484Z,0
2022-09-16T03:22:09.664Z,0
2022-09-16T03:23:15.834Z,0
2022-09-16T03:24:22.233Z,0
2022-09-16T03:25:28.160Z,0
2022-09-16T03:26:33.366Z,0
2022-09-16T03:27:39.529Z,0
2022-09-16T03:28:45.698Z,0
2022-09-16T03:29:51.918Z,0
2022-09-16T03:30:58.055Z,0
2022-09-16T03:32:04.198Z,0
2022-09-16T03:33:10.384Z,0
2022-09-16T03:34:16.568Z,0
2022-09-16T03:35:22.780Z,0
2022-09-16T03:36:28.947Z,0
2022-09-16T03:37:35.078Z,0
2022-09-16T03:38:41.225Z,0
2022-09-16T03:39:47.395Z,0
2022-09-16T03:40:52.598Z,0
2022-09-16T03:41:58.743Z,0
2022-09-16T03:43:04.955Z,0
2022-09-16T03:44:11.173Z,0
2022-09-16T03:45:17.248Z,0
2022-09-16T03:46:23.458Z,0
2022-09-16T03:47:29.646Z,0
2022-09-16T03:48:35.764Z,0
2022-09-16T03:49:41.923Z,0
2022-09-16T03:50:48.164Z,0
2022-09-16T03:51:54.347Z,0
2022-09-16T03:53:00.438Z,0
2022-09-16T03:54:06.685Z,0
2022-09-16T03:55:11.787Z,0
2022-09-16T03:56:17.974Z,0
2022-09-16T03:57:24.129Z,0
2022-09-16T03:58:30.298Z,0
2022-09-16T03:59:36.508Z,0
2022-09-16T04:00:42.730Z,0
2022-09-16T04:01:48.807Z,0
2022-09-16T04:02:55.019Z,0
2022-09-16T04:04:01.152Z,0
2022-09-16T04:05:07.385Z,0
2022-09-16T04:06:13.522Z,0
2022-09-16T04:07:19.654Z,0
2022-09-16T04:08:25.853Z,0
2022-09-16T04:09:31.020Z,0
2022-09-16T04:10:37.174Z,0
2022-09-16T04:11:43.356Z,0
2022-09-16T04:12:49.564Z,0
2022-09-16T04:13:55.702Z,0
2022-09-16T04:15:01.937Z,0
2022-09-16T04:16:08.029Z,0
2022-09-16T04:17:14.189Z,0
2022-09-16T04:18:20.425Z,0
2022-09-16T04:19:26.541Z,0
2022-09-16T04:20:32.706Z,0
2022-09-16T04:21:38.879Z,0
2022-09-16T04:22:45.052Z,0
2022-09-16T04:23:50.231Z,0
2022-09-16T04:24:56.408Z,0
2022-09-16T04:26:02.590Z,0
2022-09-16T04:27:08.733Z,0
2022-09-16T04:28:14.919Z,0
2022-09-16T04:29:21.087Z,0
2022-09-16T04:30:27.266Z,0
2022-09-16T04:31:33.427Z,0
2022-09-16T04:32:39.619Z,0
2022-09-16T04:33:45.766Z,0
2022-09-16T04:34:51.935Z,0
2022-09-16T04:35:58.091Z,0
2022-09-16T04:37:04.289Z,0
2022-09-16T04:38:09.462Z,0
2022-09-16T04:39:15.618Z,0
2022-09-16T04:40:21.788Z,0
2022-09-16T04:41:27.975Z,0
2022-09-16T04:42:34.131Z,0
2022-09-16T04:43:40.298Z,0
2022-09-16T04:44:46.469Z,0
2022-09-16T04:45:52.646Z,0
2022-09-16T04:46:58.824Z,0
2022-09-16T04:48:04.994Z,0
2022-09-16T04:49:11.151Z,0
2022-09-16T04:50:17.359Z,0
2022-09-16T04:51:23.496Z,0
2022-09-16T04:52:28.675Z,0
2022-09-16T04:53:34.844Z,0
2022-09-16T04:54:41.009Z,0
2022-09-16T04:55:47.183Z,0
2022-09-16T04:56:53.342Z,0
2022-09-16T04:57:59.531Z,0
2022-09-16T04:59:05.707Z,0
2022-09-16T05:00:11.860Z,0
2022-09-16T05:01:18.022Z,0
2022-09-16T05:02:24.240Z,0
2022-09-16T05:03:30.367Z,0
2022-09-16T05:04:36.540Z,0
2022-09-16T05:05:42.699Z,0
2022-09-16T05:06:47.897Z,0
2022-09-16T05:07:54.066Z,0
2022-09-16T05:09:00.245Z,0
2022-09-16T05:10:06.405Z,0
2022-09-16T05:11:12.577Z,0
2022-09-16T05:12:18.745Z,0
2022-09-16T05:13:24.912Z,0
2022-09-16T05:14:31.097Z,0
2022-09-16T05:15:37.260Z,0
2022-09-16T05:16:43.417Z,5
2022-09-16T05:17:49.579Z,5
2022-09-16T05:18:55.763Z,5
2022-09-16T05:20:01.932Z,5
2022-09-16T05:21:07.148Z,5
2022-09-16T05:22:13.289Z,5
2022-09-16T05:23:19.470Z,11
2022-09-16T05:24:25.611Z,11
2022-09-16T05:25:31.799Z,11
2022-09-16T05:26:37.959Z,11
2022-09-16T05:27:44.143Z,11
2022-09-16T05:28:50.357Z,11
2022-09-16T05:29:56.467Z,11
2022-09-16T05:31:02.646Z,11
2022-09-16T05:32:08.818Z,5
2022-09-16T05:33:15.000Z,11
2022-09-16T05:34:21.146Z,11
2022-09-16T05:35:26.340Z,11
2022-09-16T05:36:32.522Z,11
2022-09-16T05:37:38.683Z,11
2022-09-16T05:38:44.845Z,11
2022-09-16T05:39:51.032Z,11
2022-09-16T05:40:57.196Z,11
2022-09-16T05:42:03.392Z,11
2022-09-16T05:43:09.520Z,11
2022-09-16T05:44:15.693Z,11
2022-09-16T05:45:21.875Z,11
2022-09-16T05:46:28.036Z,11
2022-09-16T05:47:34.197Z,16
2022-09-16T05:48:40.391Z,16
2022-09-16T05:49:45.578Z,22
2022-09-16T05:50:51.727Z,22
2022-09-16T05:51:57.891Z,28
2022-09-16T05:53:04.113Z,22
2022-09-16T05:54:10.232Z,16
2022-09-16T05:55:16.402Z,16
2022-09-16T05:56:22.581Z,16
2022-09-16T05:57:28.750Z,16
2022-09-16T05:58:34.916Z,16
2022-09-16T05:59:41.085Z,16
2022-09-16T06:00:47.272Z,22
2022-09-16T06:01:53.458Z,16
2022-09-16T06:02:59.608Z,22
2022-09-16T06:04:04.770Z,22
2022-09-16T06:05:10.955Z,22
2022-09-16T06:06:17.121Z,22
2022-09-16T06:07:23.285Z,28
2022-09-16T06:08:29.458Z,28
2022-09-16T06:09:35.632Z,28
2022-09-16T06:10:40.826Z,22
2022-09-16T06:11:46.981Z,22
2022-09-16T06:12:53.166Z,16
2022-09-16T06:13:59.314Z,22
2022-09-16T06:15:05.516Z,28
2022-09-16T06:16:11.703Z,33
2022-09-16T06:17:17.839Z,39
2022-09-16T06:18:24.005Z,39
2022-09-16T06:19:30.170Z,39
2022-09-16T06:20:36.355Z,39
2022-09-16T06:21:42.511Z,33
2022-09-16T06:22:48.697Z,33
2022-09-16T06:23:54.864Z,28
2022-09-16T06:25:00.028Z,28
2022-09-16T06:26:06.209Z,28
2022-09-16T06:27:12.380Z,28
2022-09-16T06:28:18.546Z,28
2022-09-16T06:29:24.723Z,28
2022-09-16T06:30:30.886Z,33
2022-09-16T06:31:37.064Z,33
2022-09-16T06:32:43.272Z,39
2022-09-16T06:33:49.451Z,45
2022-09-16T06:34:55.567Z,45
2022-09-16T06:36:01.744Z,50
2022-09-16T06:37:07.932Z,73
2022-09-16T06:38:14.080Z,73
2022-09-16T06:39:19.253Z,67
2022-09-16T06:40:25.534Z,67
2022-09-16T06:41:31.599Z,84
2022-09-16T06:42:37.771Z,78
2022-09-16T06:43:43.933Z,90
2022-09-16T06:44:50.108Z,101
2022-09-16T06:45:56.275Z,112
2022-09-16T06:47:02.458Z,112
2022-09-16T06:48:08.623Z,95
2022-09-16T06:49:14.780Z,90
2022-09-16T06:50:20.952Z,84
2022-09-16T06:51:27.140Z,67
2022-09-16T06:52:33.308Z,56
2022-09-16T06:53:38.497Z,45
2022-09-16T06:54:44.667Z,50
2022-09-16T06:55:50.823Z,56
2022-09-16T06:56:56.983Z,45
2022-09-16T06:58:03.179Z,39
2022-09-16T06:59:09.329Z,33
2022-09-16T07:00:15.491Z,39
2022-09-16T07:01:21.678Z,50
2022-09-16T07:02:27.852Z,61
2022-09-16T07:03:34.024Z,67
2022-09-16T07:04:40.191Z,61
2022-09-16T07:05:46.353Z,73
2022-09-16T07:06:52.506Z,73
2022-09-16T07:07:57.690Z,61
2022-09-16T07:09:03.873Z,50
2022-09-16T07:10:10.057Z,56
2022-09-16T07:11:16.212Z,73
2022-09-16T07:12:22.387Z,78
2022-09-16T07:13:28.585Z,101
2022-09-16T07:14:34.792Z,101
2022-09-16T07:15:40.877Z,90
2022-09-16T07:16:47.052Z,135
2022-09-16T07:17:53.288Z,135
2022-09-16T07:18:59.490Z,112
2022-09-16T07:20:05.667Z,90
2022-09-16T07:21:11.883Z,90
2022-09-16T07:22:16.928Z,67
2022-09-16T07:23:23.101Z,78
2022-09-16T07:24:29.375Z,61
2022-09-16T07:25:35.524Z,56
2022-09-16T07:26:41.691Z,67
2022-09-16T07:27:47.796Z,90
2022-09-16T07:28:54.038Z,73
2022-09-16T07:30:00.195Z,61
2022-09-16T07:31:06.255Z,61
2022-09-16T07:32:12.440Z,50
2022-09-16T07:33:18.613Z,45
2022-09-16T07:34:24.902Z,39
2022-09-16T07:35:30.968Z,33
2022-09-16T07:36:36.162Z,22
2022-09-16T07:37:42.350Z,16
2022-09-16T07:38:48.485Z,16
2022-09-16T07:39:54.655Z,16
2022-09-16T07:41:00.827Z,22
2022-09-16T07:42:06.985Z,22
2022-09-16T07:43:13.176Z,28
2022-09-16T07:44:19.317Z,28
2022-09-16T07:45:25.603Z,33
2022-09-16T07:46:31.660Z,39
2022-09-16T07:47:37.837Z,50
2022-09-16T07:48:44.043Z,39
2022-09-16T07:49:50.165Z,33
2022-09-16T07:50:55.372Z,39
2022-09-16T07:52:01.522Z,45
2022-09-16T07:53:07.692Z,39
2022-09-16T07:54:13.902Z,39
2022-09-16T07:55:20.113Z,39
2022-09-16T07:56:26.225Z,50
2022-09-16T07:57:32.458Z,45
2022-09-16T07:58:38.544Z,33
2022-09-16T07:59:44.753Z,33
2022-09-16T08:00:50.901Z,39
2022-09-16T08:01:57.051Z,39
2022-09-16T08:03:03.226Z,33
2022-09-16T08:04:09.374Z,39
2022-09-16T08:05:14.587Z,39
2022-09-16T08:06:20.752Z,39
2022-09-16T08:07:27.082Z,50
2022-09-16T08:08:33.241Z,50
2022-09-16T08:09:39.251Z,45
2022-09-16T08:10:46.882Z,33
2022-09-16T08:11:51.586Z,33
2022-09-16T08:12:57.755Z,39
2022-09-16T08:14:04.051Z,67
2022-09-16T08:15:10.228Z,61
2022-09-16T08:16:16.259Z,78
2022-09-16T08:17:22.518Z,78
2022-09-16T08:18:28.649Z,84
2022-09-16T08:19:33.913Z,73
2022-09-16T08:20:39.980Z,50
2022-09-16T08:21:46.245Z,56
2022-09-16T08:22:52.335Z,67
2022-09-16T08:23:58.476Z,95
2022-09-16T08:25:04.761Z,106
2022-09-16T08:26:10.799Z,90
2022-09-16T08:27:17.025Z,90
2022-09-16T08:28:23.205Z,101
2022-09-16T08:29:29.322Z,140
2022-09-16T08:30:35.533Z,106
2022-09-16T08:31:41.744Z,118
2022-09-16T08:32:47.891Z,151
2022-09-16T08:33:53.080Z,135
2022-09-16T08:34:59.184Z,135
2022-09-16T08:36:05.338Z,118
2022-09-16T08:37:11.604Z,135
2022-09-16T08:38:17.721Z,112
2022-09-16T08:39:23.857Z,101
2022-09-16T08:40:30.088Z,95
2022-09-16T08:41:36.228Z,157
2022-09-16T08:42:42.410Z,151
2022-09-16T08:43:48.633Z,112
2022-09-16T08:44:54.751Z,157
2022-09-16T08:46:00.916Z,208
2022-09-16T08:47:07.071Z,191
2022-09-16T08:48:12.240Z,191
2022-09-16T08:49:18.516Z,241
2022-09-16T08:50:24.665Z,264
2022-09-16T08:51:30.783Z,225
2022-09-16T08:52:36.930Z,253
2022-09-16T08:53:43.173Z,236
2022-09-16T08:54:49.257Z,264
2022-09-16T08:55:55.443Z,208
2022-09-16T08:57:01.654Z,241
2022-09-16T08:58:07.845Z,281
2022-09-16T08:59:13.954Z,241
2022-09-16T09:00:20.196Z,202
2022-09-16T09:01:26.270Z,163
2022-09-16T09:02:31.566Z,146
2022-09-16T09:03:37.733Z,123
2022-09-16T09:04:43.788Z,101
2022-09-16T09:05:50.001Z,84
2022-09-16T09:06:56.130Z,90
2022-09-16T09:08:02.345Z,90
2022-09-16T09:09:08.470Z,84
2022-09-16T09:10:14.641Z,101
2022-09-16T09:11:20.953Z,151
2022-09-16T09:12:27.122Z,191
2022-09-16T09:13:33.123Z,185
2022-09-16T09:14:39.385Z,168
2022-09-16T09:15:45.489Z,163
2022-09-16T09:16:50.665Z,151
2022-09-16T09:17:56.848Z,129
2022-09-16T09:19:03.006Z,118
2022-09-16T09:20:09.177Z,146
2022-09-16T09:21:15.357Z,174
2022-09-16T09:22:21.550Z,191
2022-09-16T09:23:27.781Z,191
2022-09-16T09:24:33.884Z,202
2022-09-16T09:25:40.099Z,208
2022-09-16T09:26:46.187Z,196
2022-09-16T09:27:52.379Z,196
2022-09-16T09:28:58.531Z,196
2022-09-16T09:30:04.836Z,163
2022-09-16T09:31:09.883Z,151
2022-09-16T09:32:16.036Z,196
2022-09-16T09:33:22.212Z,264
2022-09-16T09:34:28.407Z,286
2022-09-16T09:35:34.602Z,258
2022-09-16T09:36:40.862Z,196
2022-09-16T09:37:46.915Z,146
2022-09-16T09:38:53.071Z,140
2022-09-16T09:39:59.229Z,157
2022-09-16T09:41:05.448Z,163
2022-09-16T09:42:11.600Z,157
2022-09-16T09:43:17.742Z,146
2022-09-16T09:44:23.926Z,146
2022-09-16T09:45:29.146Z,157
2022-09-16T09:46:35.263Z,202
2022-09-16T09:47:41.541Z,253
2022-09-16T09:48:47.618Z,247
2022-09-16T09:49:53.786Z,320
2022-09-16T09:50:59.959Z,399
2022-09-16T09:52:05.138Z,388
2022-09-16T09:53:11.353Z,388
2022-09-16T09:54:17.476Z,388
2022-09-16T09:55:23.665Z,275
2022-09-16T09:56:29.829Z,275
2022-09-16T09:57:35.996Z,225
2022-09-16T09:58:42.145Z,168
2022-09-16T09:59:48.418Z,163
2022-09-16T10:00:54.532Z,196
2022-09-16T10:02:00.658Z,196
2022-09-16T10:03:06.830Z,157
2022-09-16T10:04:12.998Z,140
2022-09-16T10:05:19.207Z,123
2022-09-16T10:06:24.370Z,118
2022-09-16T10:07:30.555Z,106
2022-09-16T10:08:36.687Z,95
2022-09-16T10:09:42.874Z,95
2022-09-16T10:10:49.025Z,95
2022-09-16T10:11:55.204Z,101
2022-09-16T10:13:01.394Z,101
2022-09-16T10:14:07.558Z,112
2022-09-16T10:15:13.767Z,135
2022-09-16T10:16:19.889Z,157
2022-09-16T10:17:26.038Z,191
2022-09-16T10:18:32.220Z,202
2022-09-16T10:19:38.379Z,185
2022-09-16T10:20:43.568Z,185
2022-09-16T10:21:49.795Z,185
2022-09-16T10:22:55.951Z,174
2022-09-16T10:24:02.122Z,180
2022-09-16T10:25:08.302Z,185
2022-09-16T10:26:14.470Z,219
2022-09-16T10:27:20.637Z,303
2022-09-16T10:28:26.796Z,399
2022-09-16T10:29:32.938Z,433
2022-09-16T10:30:39.082Z,360
2022-09-16T10:31:45.255Z,270
2022-09-16T10:32:51.431Z,298
2022-09-16T10:33:57.591Z,354
2022-09-16T10:35:02.781Z,433
2022-09-16T10:36:09.015Z,472
2022-09-16T10:37:15.136Z,466
2022-09-16T10:38:21.341Z,489
2022-09-16T10:39:27.500Z,427
2022-09-16T10:40:33.642Z,376
2022-09-16T10:41:39.887Z,421
2022-09-16T10:42:45.995Z,579
2022-09-16T10:43:52.143Z,489
2022-09-16T10:44:58.337Z,393
2022-09-16T10:46:04.506Z,354
2022-09-16T10:47:10.632Z,315
2022-09-16T10:48:16.825Z,247
2022-09-16T10:49:21.995Z,202
2022-09-16T10:50:28.168Z,213
2022-09-16T10:51:34.453Z,258
2022-09-16T10:52:40.512Z,315
2022-09-16T10:53:46.702Z,247
2022-09-16T10:54:52.853Z,185
2022-09-16T10:55:59.074Z,180
2022-09-16T10:57:05.247Z,146
2022-09-16T10:58:11.374Z,90
2022-09-16T10:59:17.592Z,67
2022-09-16T11:00:23.734Z,73
2022-09-16T11:01:29.969Z,84
2022-09-16T11:02:36.083Z,84
2022-09-16T11:03:41.287Z,73
2022-09-16T11:04:47.389Z,67
2022-09-16T11:05:53.566Z,73
2022-09-16T11:06:59.720Z,73
2022-09-16T11:08:05.960Z,67
2022-09-16T11:09:12.071Z,78
2022-09-16T11:10:18.233Z,84
2022-09-16T11:11:24.405Z,90
2022-09-16T11:12:30.561Z,101
2022-09-16T11:13:36.734Z,135
2022-09-16T11:14:42.935Z,180
2022-09-16T11:15:49.070Z,185
2022-09-16T11:16:55.244Z,163
2022-09-16T11:18:00.452Z,146
2022-09-16T11:19:06.640Z,129
2022-09-16T11:20:12.771Z,135
2022-09-16T11:21:18.982Z,168
2022-09-16T11:22:25.167Z,191
2022-09-16T11:23:31.301Z,230
2022-09-16T11:24:37.450Z,219
2022-09-16T11:25:43.625Z,196
2022-09-16T11:26:49.876Z,180
2022-09-16T11:27:55.964Z,180
2022-09-16T11:29:02.159Z,180
2022-09-16T11:30:08.365Z,174
2022-09-16T11:31:14.464Z,163
2022-09-16T11:32:19.649Z,174
2022-09-16T11:33:25.854Z,185
2022-09-16T11:34:32.006Z,185
2022-09-16T11:35:38.159Z,174
2022-09-16T11:36:44.326Z,163
2022-09-16T11:37:50.512Z,163
2022-09-16T11:38:56.671Z,163
2022-09-16T11:40:02.853Z,157
2022-09-16T11:41:09.090Z,140
2022-09-16T11:42:15.180Z,118
2022-09-16T11:43:21.335Z,101
2022-09-16T11:44:27.510Z,106
2022-09-16T11:45:33.684Z,106
2022-09-16T11:46:38.900Z,106
2022-09-16T11:47:45.047Z,95
2022-09-16T11:48:51.212Z,95
2022-09-16T11:49:57.376Z,101
2022-09-16T11:51:03.574Z,112
2022-09-16T11:52:09.728Z,106
2022-09-16T11:53:15.977Z,95
2022-09-16T11:54:22.111Z,84
2022-09-16T11:55:28.225Z,73
2022-09-16T11:56:34.408Z,67
2022-09-16T11:57:40.562Z,61
2022-09-16T11:58:46.735Z,67
2022-09-16T11:59:52.929Z,67
2022-09-16T12:00:58.085Z,73
2022-09-16T12:02:04.266Z,84
2022-09-16T12:03:10.496Z,95
2022-09-16T12:04:16.594Z,101
2022-09-16T12:05:22.844Z,112
2022-09-16T12:06:28.967Z,118
2022-09-16T12:07:35.173Z,129
2022-09-16T12:08:42.323Z,146
2022-09-16T12:09:47.429Z,163
2022-09-16T12:10:53.598Z,168
2022-09-16T12:11:59.788Z,163
2022-09-16T12:13:05.967Z,163
2022-09-16T12:14:12.201Z,163
2022-09-16T12:15:17.303Z,157
2022-09-16T12:16:23.487Z,168
2022-09-16T12:17:29.647Z,191
2022-09-16T12:18:35.894Z,219
2022-09-16T12:19:41.977Z,230
2022-09-16T12:20:48.217Z,230
2022-09-16T12:21:54.341Z,247
2022-09-16T12:23:00.516Z,286
2022-09-16T12:24:06.660Z,371
2022-09-16T12:25:12.823Z,421
2022-09-16T12:26:19.031Z,360
2022-09-16T12:27:25.159Z,298
2022-09-16T12:28:31.321Z,253
2022-09-16T12:29:36.525Z,225
2022-09-16T12:30:42.768Z,219
2022-09-16T12:31:48.854Z,219
2022-09-16T12:32:55.035Z,202
2022-09-16T12:34:01.195Z,185
2022-09-16T12:35:07.383Z,174
2022-09-16T12:36:13.590Z,163
2022-09-16T12:37:19.727Z,157
2022-09-16T12:38:25.876Z,151
2022-09-16T12:39:32.048Z,146
2022-09-16T12:40:38.233Z,151
2022-09-16T12:41:44.385Z,157
2022-09-16T12:42:50.564Z,163
2022-09-16T12:43:55.784Z,174
2022-09-16T12:45:01.895Z,180
2022-09-16T12:46:08.068Z,174
2022-09-16T12:47:14.255Z,157
2022-09-16T12:48:20.415Z,129
2022-09-16T12:49:26.642Z,106
2022-09-16T12:50:32.745Z,90
2022-09-16T12:51:38.928Z,84
2022-09-16T12:52:45.143Z,101
2022-09-16T12:53:51.376Z,118
2022-09-16T12:54:57.457Z,123
2022-09-16T12:56:03.621Z,118
2022-09-16T12:57:09.780Z,112
2022-09-16T12:58:14.988Z,112
2022-09-16T12:59:21.226Z,101
2022-09-16T13:00:27.336Z,84
2022-09-16T13:01:33.507Z,67
2022-09-16T13:02:39.662Z,56
2022-09-16T13:03:45.827Z,56
2022-09-16T13:04:51.985Z,56
2022-09-16T13:05:58.134Z,67
2022-09-16T13:07:04.312Z,67
2022-09-16T13:08:10.484Z,61
2022-09-16T13:09:16.644Z,50
2022-09-16T13:10:22.820Z,45
2022-09-16T13:11:28.992Z,45
2022-09-16T13:12:34.157Z,45
2022-09-16T13:13:40.414Z,45
2022-09-16T13:14:46.507Z,45
2022-09-16T13:15:52.685Z,45
2022-09-16T13:16:58.849Z,45
2022-09-16T13:18:05.028Z,39
2022-09-16T13:19:11.200Z,50
2022-09-16T13:20:17.358Z,50
2022-09-16T13:21:23.558Z,50
2022-09-16T13:22:29.709Z,50
2022-09-16T13:23:35.848Z,50
2022-09-16T13:24:42.024Z,45
2022-09-16T13:25:48.195Z,45
2022-09-16T13:26:53.379Z,45
2022-09-16T13:27:59.550Z,50
2022-09-16T13:29:05.715Z,56
2022-09-16T13:30:11.910Z,50
2022-09-16T13:31:18.054Z,50
2022-09-16T13:32:24.225Z,61
2022-09-16T13:33:29.442Z,61
2022-09-16T13:34:35.609Z,67
2022-09-16T13:35:41.788Z,73
2022-09-16T13:36:47.951Z,78
2022-09-16T13:37:54.105Z,73
2022-09-16T13:39:00.293Z,67
2022-09-16T13:40:06.436Z,73
2022-09-16T13:41:12.609Z,73
2022-09-16T13:42:18.788Z,67
2022-09-16T13:43:24.958Z,50
2022-09-16T13:44:31.124Z,50
2022-09-16T13:45:37.293Z,61
2022-09-16T13:46:43.456Z,101
2022-09-16T13:47:48.635Z,129
2022-09-16T13:48:54.813Z,146
2022-09-16T13:50:01.003Z,174
2022-09-16T13:51:07.156Z,219
2022-09-16T13:52:13.309Z,241
2022-09-16T13:53:19.498Z,241
2022-09-16T13:54:25.671Z,253
2022-09-16T13:55:31.838Z,264
2022-09-16T13:56:38.004Z,270
2022-09-16T13:58:50.325Z,157
2022-09-16T13:59:56.501Z,140
2022-09-16T14:01:02.665Z,180
2022-09-16T14:02:07.862Z,174
2022-09-16T14:03:14.032Z,123
2022-09-16T14:04:20.205Z,112
2022-09-16T14:05:26.378Z,112
2022-09-16T14:06:32.552Z,101
2022-09-16T14:07:38.713Z,84
2022-09-16T14:08:44.892Z,84
2022-09-16T14:09:51.047Z,90
2022-09-16T14:10:57.216Z,95
2022-09-16T14:12:03.419Z,90
2022-09-16T14:13:09.686Z,84
2022-09-16T14:14:15.865Z,84
2022-09-16T14:15:21.925Z,84
2022-09-16T14:16:27.087Z,78
2022-09-16T14:17:33.240Z,73
2022-09-16T14:18:39.527Z,73
2022-09-16T14:19:45.716Z,78
2022-09-16T14:20:51.753Z,90
2022-09-16T14:21:57.935Z,95
2022-09-16T14:23:04.104Z,95
2022-09-16T14:24:10.360Z,95
2022-09-16T14:25:16.570Z,101
2022-09-16T14:26:22.753Z,123
2022-09-16T14:27:28.860Z,140
2022-09-16T14:28:35.088Z,140
2022-09-16T14:29:41.125Z,140
2022-09-16T14:30:46.414Z,140
2022-09-16T14:31:52.466Z,135
2022-09-16T14:32:58.767Z,129
2022-09-16T14:34:04.806Z,118
2022-09-16T14:35:11.069Z,106
2022-09-16T14:36:17.286Z,95
2022-09-16T14:37:23.311Z,84
2022-09-16T14:38:29.477Z,78
2022-09-16T14:39:35.793Z,84
2022-09-16T14:40:41.962Z,90
2022-09-16T14:41:48.102Z,90
2022-09-16T14:42:54.152Z,73
2022-09-16T14:44:00.459Z,78
2022-09-16T14:45:05.646Z,90
2022-09-16T14:46:11.802Z,95
2022-09-16T14:47:17.938Z,84
2022-09-16T14:48:24.160Z,73
2022-09-16T14:49:30.234Z,67
2022-09-16T14:50:36.517Z,61
2022-09-16T14:51:42.652Z,73
2022-09-16T14:52:48.701Z,90
2022-09-16T14:53:54.989Z,112
2022-09-16T14:55:01.178Z,140
2022-09-16T14:56:07.372Z,163
2022-09-16T14:57:13.508Z,168
2022-09-16T14:58:19.703Z,140
2022-09-16T14:59:24.885Z,123
2022-09-16T15:00:30.892Z,123
2022-09-16T15:01:37.193Z,129
2022-09-16T15:02:43.373Z,123
2022-09-16T15:03:49.400Z,112
2022-09-16T15:04:55.712Z,101
2022-09-16T15:06:01.890Z,90
2022-09-16T15:07:08.046Z,90
2022-09-16T15:08:14.250Z,84
2022-09-16T15:09:20.272Z,90
2022-09-16T15:10:26.421Z,84
2022-09-16T15:11:32.776Z,78
2022-09-16T15:12:38.898Z,78
2022-09-16T15:13:44.093Z,78
2022-09-16T15:14:50.122Z,78
2022-09-16T15:15:56.436Z,67
2022-09-16T15:17:02.599Z,61
2022-09-16T15:18:08.750Z,56
2022-09-16T15:19:14.787Z,56
2022-09-16T15:20:21.114Z,67
2022-09-16T15:22:33.485Z,84
2022-09-16T15:23:39.623Z,67
2022-09-16T15:25:51.972Z,61
2022-09-16T15:26:58.056Z,84
2022-09-16T15:28:03.329Z,95
2022-09-16T15:30:15.654Z,101
2022-09-16T15:31:21.674Z,123
2022-09-16T15:32:27.985Z,135
2022-09-16T15:33:34.003Z,123
2022-09-16T15:34:40.320Z,90
2022-09-16T15:35:46.480Z,78
2022-09-16T15:36:52.718Z,90
2022-09-16T15:37:58.800Z,90
2022-09-16T15:39:04.992Z,95
2022-09-16T15:40:11.224Z,101
2022-09-16T15:41:17.392Z,90
2022-09-16T15:42:22.536Z,84
2022-09-16T15:43:28.749Z,84
2022-09-16T15:44:34.766Z,84
2022-09-16T15:45:41.115Z,90
2022-09-16T15:46:47.209Z,90
2022-09-16T15:47:53.397Z,84